Time;durP1;ratioP1;P1;durP2;ratioP2;P2;SDS_P1;SDS_P2;PMS_P1;PMS_P2;Temp;Humidity;BMP_temperature;BMP_pressure;BME280_temperature;BME280_humidity;BME280_pressure;Samples;Min_cycle;Max_cycle;Signal;HPM_P1;HPM_P2
2022/03/19 00:00:19;;;;;;;1.07;1.07;;;6.20;99.90;;;;;;5052427;28;20184;-74
2022/03/19 00:02:45;;;;;;;0.63;0.63;;;6.20;99.90;;;;;;5052046;28;20794;-75
2022/03/19 00:05:11;;;;;;;0.40;0.40;;;6.20;99.90;;;;;;5052158;28;20192;-75
2022/03/19 00:07:40;;;;;;;0.30;0.30;;;6.20;99.90;;;;;;5048852;28;20200;-75
2022/03/19 00:10:08;;;;;;;1.70;1.50;;;6.20;99.90;;;;;;5065715;28;20177;-75
2022/03/19 00:12:34;;;;;;;8.70;1.80;;;6.20;99.90;;;;;;5046908;28;20659;-75
2022/03/19 00:15:00;;;;;;;1.30;0.83;;;6.20;99.90;;;;;;5052106;28;20199;-75
2022/03/19 00:17:26;;;;;;;0.87;0.83;;;6.20;99.90;;;;;;5052042;28;20586;-74
2022/03/19 00:19:51;;;;;;;0.30;0.30;;;6.30;99.90;;;;;;5051466;28;20227;-75
2022/03/19 00:22:17;;;;;;;1.30;0.80;;;6.20;99.90;;;;;;5051830;28;20694;-76
2022/03/19 00:24:42;;;;;;;1.93;1.50;;;6.20;99.90;;;;;;5051717;28;20213;-76
2022/03/19 00:27:08;;;;;;;9.47;2.87;;;6.10;99.90;;;;;;5051827;28;20230;-74
2022/03/19 00:29:33;;;;;;;0.20;0.20;;;6.10;99.90;;;;;;5053858;28;20672;-75
2022/03/19 00:31:59;;;;;;;2.40;1.37;;;6.10;99.90;;;;;;5056023;28;20656;-76
2022/03/19 00:34:25;;;;;;;0.63;0.57;;;6.10;99.90;;;;;;5053302;28;20684;-75
2022/03/19 00:36:50;;;;;;;1.37;0.77;;;6.00;99.90;;;;;;5052034;28;20192;-74
2022/03/19 00:39:16;;;;;;;0.20;0.20;;;5.90;99.90;;;;;;5050494;28;20180;-75
2022/03/19 00:41:41;;;;;;;1.57;1.50;;;6.00;99.90;;;;;;5031954;28;20704;-75
2022/03/19 00:44:07;;;;;;;1.33;0.53;;;5.90;99.90;;;;;;5032271;28;20198;-76
2022/03/19 00:46:33;;;;;;;4.90;1.07;;;5.80;99.90;;;;;;5031981;28;20673;-76
2022/03/19 00:49:02;;;;;;;2.20;2.10;;;5.80;99.90;;;;;;5031893;28;20201;-76
2022/03/19 00:51:27;;;;;;;1.40;1.33;;;5.70;99.90;;;;;;5031271;28;20243;-76
2022/03/19 00:53:53;;;;;;;0.67;0.67;;;5.60;99.90;;;;;;5030461;28;20190;-77
2022/03/19 00:56:18;;;;;;;1.40;1.23;;;5.60;99.90;;;;;;5038199;28;20184;-76
2022/03/19 00:58:44;;;;;;;2.13;2.03;;;5.50;99.90;;;;;;5051539;28;20660;-75
2022/03/19 01:01:09;;;;;;;1.53;1.03;;;5.40;99.90;;;;;;5051411;28;20241;-75
2022/03/19 01:03:35;;;;;;;0.53;0.53;;;5.30;99.90;;;;;;5051297;28;20675;-75
2022/03/19 01:06:00;;;;;;;1.53;0.67;;;5.30;99.90;;;;;;5050952;28;20330;-75
2022/03/19 01:08:26;;;;;;;2.57;1.20;;;5.20;99.90;;;;;;5051505;28;20220;-76
2022/03/19 01:10:52;;;;;;;3.90;1.40;;;5.10;99.90;;;;;;5051277;28;20689;-76
2022/03/19 01:13:18;;;;;;;0.40;0.40;;;5.10;99.90;;;;;;5047520;28;20268;-76
2022/03/19 01:15:43;;;;;;;7.83;1.33;;;5.10;99.90;;;;;;5032057;28;20232;-76
2022/03/19 01:18:09;;;;;;;1.20;1.10;;;5.10;99.90;;;;;;5064265;28;20193;-76
2022/03/19 01:20:35;;;;;;;1.73;1.13;;;5.10;99.90;;;;;;5050996;28;20181;-77
2022/03/19 01:23:00;;;;;;;0.60;0.60;;;5.10;99.90;;;;;;5050810;28;20181;-77
2022/03/19 01:25:26;;;;;;;0.70;0.70;;;5.10;99.90;;;;;;5050942;28;20223;-77
2022/03/19 01:27:52;;;;;;;1.37;1.27;;;5.00;99.90;;;;;;5066630;28;20231;-76
2022/03/19 01:30:21;;;;;;;6.43;2.73;;;5.00;99.90;;;;;;5049829;28;20176;-75
2022/03/19 01:32:47;;;;;;;0.63;0.63;;;4.90;99.90;;;;;;5050902;28;20192;-76
2022/03/19 01:35:14;;;;;;;0.57;0.57;;;4.80;99.90;;;;;;5050886;28;20189;-77
2022/03/19 01:37:40;;;;;;;0.50;0.50;;;4.70;99.90;;;;;;5047140;28;20193;-77
2022/03/19 01:40:08;;;;;;;2.40;2.13;;;4.60;99.90;;;;;;5031252;28;20185;-76
2022/03/19 01:42:36;;;;;;;0.67;0.67;;;4.60;99.90;;;;;;5030758;28;20189;-77
2022/03/19 01:45:04;;;;;;;0.53;0.53;;;4.50;99.90;;;;;;5042432;28;20208;-77
2022/03/19 01:47:30;;;;;;;2.90;1.70;;;4.50;99.90;;;;;;5052820;28;20724;-75
2022/03/19 01:49:57;;;;;;;1.47;1.37;;;4.50;99.90;;;;;;5050932;28;20177;-76
2022/03/19 01:52:25;;;;;;;0.47;0.47;;;4.40;99.90;;;;;;5068970;28;20177;-76
2022/03/19 01:54:51;;;;;;;0.30;0.30;;;4.40;99.90;;;;;;5054762;28;20894;-76
2022/03/19 01:57:23;;;;;;;1.93;0.70;;;4.30;99.90;;;;;;5049961;28;20178;-76
2022/03/19 01:59:50;;;;;;;0.10;0.10;;;4.30;99.90;;;;;;5034739;28;20182;-75
2022/03/19 02:02:15;;;;;;;0.20;0.20;;;4.20;99.90;;;;;;5034211;28;20197;-76
2022/03/19 02:04:42;;;;;;;3.63;0.83;;;4.20;99.90;;;;;;5046594;28;20201;-76
2022/03/19 02:07:09;;;;;;;0.60;0.60;;;4.10;99.90;;;;;;5069889;28;20247;-75
2022/03/19 02:09:36;;;;;;;0.40;0.40;;;4.10;99.90;;;;;;5053996;28;20235;-77
2022/03/19 02:12:03;;;;;;;1.30;1.23;;;4.10;99.90;;;;;;5044791;28;20646;-76
2022/03/19 02:14:29;;;;;;;0.60;0.60;;;4.10;99.90;;;;;;5069642;28;20209;-77
2022/03/19 02:16:54;;;;;;;2.37;1.03;;;4.00;99.90;;;;;;5054231;28;20543;-76
2022/03/19 02:19:20;;;;;;;1.47;1.37;;;3.90;99.90;;;;;;5054244;28;20235;-75
2022/03/19 02:21:48;;;;;;;0.20;0.20;;;3.90;99.90;;;;;;5054079;28;20185;-77
2022/03/19 02:27:00;;;;;;;1.77;1.30;;;3.80;99.90;;;;;;5074604;28;20245;-77
2022/03/19 02:29:25;;;;;;;0.73;0.73;;;3.80;99.90;;;;;;5075461;28;20194;-77
2022/03/19 02:31:54;;;;;;;2.43;0.63;;;3.70;99.90;;;;;;5075731;28;20176;-77
2022/03/19 02:34:20;;;;;;;1.03;0.50;;;3.70;99.90;;;;;;5057948;28;20199;-78
2022/03/19 02:36:46;;;;;;;0.40;0.40;;;3.60;99.90;;;;;;5074859;28;20218;-78
2022/03/19 02:39:17;;;;;;;0.37;0.37;;;3.60;99.90;;;;;;5074102;28;20586;-76
2022/03/19 02:41:49;;;;;;;0.43;0.43;;;3.60;99.90;;;;;;5073829;28;20183;-77
2022/03/19 02:44:17;;;;;;;0.87;0.87;;;3.60;99.90;;;;;;5055908;28;20258;-77
2022/03/19 02:46:48;;;;;;;36.60;2.53;;;3.60;99.90;;;;;;5056926;28;20204;-78
2022/03/19 02:49:15;;;;;;;2.70;2.17;;;3.60;99.90;;;;;;5074246;28;20183;-79
2022/03/19 02:51:42;;;;;;;1.67;1.57;;;3.60;99.90;;;;;;5074223;28;20208;-78
2022/03/19 02:54:10;;;;;;;1.90;1.13;;;3.60;99.90;;;;;;5074217;28;20734;-78
2022/03/19 02:56:38;;;;;;;4.70;2.13;;;3.70;99.90;;;;;;5073755;28;20661;-77
2022/03/19 02:59:06;;;;;;;1.70;1.30;;;3.70;99.90;;;;;;5074114;28;20177;-77
2022/03/19 03:01:32;;;;;;;1.27;1.03;;;3.90;99.90;;;;;;5073661;28;20168;-78
2022/03/19 03:03:58;;;;;;;0.67;0.50;;;4.00;99.90;;;;;;5075087;28;20263;-77
2022/03/19 03:06:24;;;;;;;0.47;0.47;;;4.30;99.90;;;;;;5074299;28;20204;-77
2022/03/19 03:08:49;;;;;;;0.97;0.93;;;4.30;99.90;;;;;;5073961;28;20173;-78
2022/03/19 03:11:15;;;;;;;0.17;0.17;;;4.40;99.90;;;;;;5073566;28;20203;-78
2022/03/19 03:13:41;;;;;;;2.03;1.17;;;4.40;99.90;;;;;;5055718;28;20728;-78
2022/03/19 03:16:06;;;;;;;1.00;0.90;;;4.50;99.90;;;;;;5074122;28;20275;-77
2022/03/19 03:18:32;;;;;;;0.67;0.40;;;4.50;99.90;;;;;;5077793;28;20176;-77
2022/03/19 03:21:00;;;;;;;0.27;0.27;;;4.50;99.90;;;;;;5078088;28;20192;-79
2022/03/19 03:23:26;;;;;;;1.27;1.00;;;4.40;99.90;;;;;;5057779;28;20203;-78
2022/03/19 03:25:52;;;;;;;1.87;1.70;;;4.30;99.90;;;;;;5075853;28;20212;-78
2022/03/19 03:28:18;;;;;;;0.67;0.67;;;4.30;99.90;;;;;;5076996;28;20172;-79
2022/03/19 03:30:43;;;;;;;1.90;1.17;;;4.20;99.90;;;;;;5073381;28;20184;-77
2022/03/19 03:33:09;;;;;;;0.40;0.40;;;4.20;99.90;;;;;;5073603;28;20698;-78
2022/03/19 03:35:34;;;;;;;0.10;0.10;;;4.20;99.90;;;;;;5073637;28;20193;-79
2022/03/19 03:38:00;;;;;;;1.30;1.30;;;4.20;99.90;;;;;;5073567;28;20177;-77
2022/03/19 03:40:26;;;;;;;0.40;0.40;;;4.30;99.90;;;;;;5072885;28;20222;-77
2022/03/19 03:42:53;;;;;;;0.57;0.53;;;4.30;99.90;;;;;;5054650;28;20172;-78
2022/03/19 03:45:19;;;;;;;0.13;0.13;;;4.30;99.90;;;;;;5055246;28;20740;-78
2022/03/19 03:47:44;;;;;;;2.00;1.17;;;4.30;99.90;;;;;;5079917;28;20211;-78
2022/03/19 03:50:10;;;;;;;0.10;0.10;;;4.10;99.90;;;;;;5062281;28;20180;-77
2022/03/19 03:52:36;;;;;;;0.30;0.30;;;4.10;99.90;;;;;;5080907;28;20168;-77
2022/03/19 03:55:03;;;;;;;3.20;2.20;;;4.00;99.90;;;;;;5079510;28;20290;-79
2022/03/19 03:57:29;;;;;;;1.10;1.10;;;4.00;99.90;;;;;;5073330;28;20268;-78
2022/03/19 03:59:54;;;;;;;0.73;0.73;;;3.90;99.90;;;;;;5072139;28;20249;-78
2022/03/19 04:02:20;;;;;;;0.53;0.40;;;3.80;99.90;;;;;;5071878;28;20187;-78
2022/03/19 04:04:45;;;;;;;4.83;1.50;;;3.70;99.90;;;;;;5071899;28;20200;-77
2022/03/19 04:07:11;;;;;;;2.43;1.47;;;3.70;99.90;;;;;;5072229;28;20597;-78
2022/03/19 04:09:36;;;;;;;0.47;0.30;;;3.60;99.90;;;;;;5071974;28;20176;-77
2022/03/19 04:12:03;;;;;;;0.33;0.33;;;3.50;99.90;;;;;;5071788;28;20540;-78
2022/03/19 04:14:29;;;;;;;0.30;0.30;;;3.40;99.90;;;;;;5071241;28;20193;-77
2022/03/19 04:16:55;;;;;;;0.77;0.77;;;3.40;99.90;;;;;;5072155;28;20212;-78
2022/03/19 04:19:21;;;;;;;0.37;0.37;;;3.40;99.90;;;;;;5073032;28;20211;-77
2022/03/19 04:21:46;;;;;;;0.10;0.10;;;3.30;99.90;;;;;;5072597;28;20208;-77
2022/03/19 04:24:12;;;;;;;1.23;1.23;;;3.20;99.90;;;;;;5072466;28;20722;-77
2022/03/19 04:26:37;;;;;;;1.80;0.53;;;3.10;99.90;;;;;;5072001;28;20643;-77
2022/03/19 04:29:03;;;;;;;0.73;0.73;;;3.10;99.90;;;;;;5071605;28;20670;-78
2022/03/19 04:31:28;;;;;;;1.00;0.57;;;3.00;99.90;;;;;;5071388;28;20211;-77
2022/03/19 04:33:54;;;;;;;0.47;0.47;;;3.00;99.90;;;;;;5071699;28;20187;-78
2022/03/19 04:36:33;;;;;;;0.73;0.73;;;2.90;99.90;;;;;;5053724;28;20200;-77
2022/03/19 04:39:02;;;;;;;1.23;1.23;;;2.90;99.90;;;;;;5071748;28;20176;-77
2022/03/19 04:41:28;;;;;;;0.10;0.10;;;2.90;99.90;;;;;;5071295;28;20207;-77
2022/03/19 04:43:55;;;;;;;2.57;2.30;;;2.90;99.90;;;;;;5071413;28;20563;-76
2022/03/19 04:46:20;;;;;;;0.30;0.30;;;2.90;99.90;;;;;;5071643;28;20208;-77
2022/03/19 04:48:46;;;;;;;3.57;0.80;;;2.90;99.90;;;;;;5071380;28;20180;-76
2022/03/19 04:51:17;;;;;;;3.30;0.40;;;2.90;99.90;;;;;;5071446;28;20178;-76
2022/03/19 04:53:49;;;;;;;0.50;0.50;;;3.00;99.90;;;;;;5053382;28;20546;-75
2022/03/19 04:56:14;;;;;;;1.10;0.43;;;3.00;99.90;;;;;;5071256;28;20198;-76
2022/03/19 04:58:40;;;;;;;0.83;0.83;;;3.00;99.90;;;;;;5071473;28;20259;-77
2022/03/19 05:01:06;;;;;;;0.10;0.10;;;2.90;99.90;;;;;;5071690;28;20233;-79
2022/03/19 05:03:31;;;;;;;0.60;0.60;;;2.80;99.90;;;;;;5072165;28;20180;-77
2022/03/19 05:05:57;;;;;;;1.37;1.30;;;2.80;99.90;;;;;;5071786;28;20675;-77
2022/03/19 05:08:23;;;;;;;0.10;0.10;;;2.80;99.90;;;;;;5071969;28;20508;-78
2022/03/19 05:13:32;;;;;;;0.27;0.27;;;2.90;99.90;;;;;;5072111;28;20221;-77
2022/03/19 05:15:58;;;;;;;0.30;0.30;;;3.00;99.90;;;;;;5054230;28;20617;-77
2022/03/19 05:18:23;;;;;;;0.17;0.17;;;3.00;99.90;;;;;;5072107;28;20185;-77
2022/03/19 05:20:49;;;;;;;0.97;0.60;;;3.00;99.90;;;;;;5072129;28;20551;-78
2022/03/19 05:23:14;;;;;;;0.20;0.20;;;3.00;99.90;;;;;;5053260;28;20225;-77
2022/03/19 05:25:40;;;;;;;0.43;0.43;;;2.90;99.90;;;;;;5074420;28;20269;-77
2022/03/19 05:28:06;;;;;;;2.00;1.70;;;2.90;99.90;;;;;;5078134;28;20187;-78
2022/03/19 05:30:31;;;;;;;0.63;0.63;;;2.90;99.90;;;;;;5059869;28;20643;-78
2022/03/19 05:32:58;;;;;;;1.47;0.63;;;2.80;99.90;;;;;;5077941;28;20202;-78
2022/03/19 05:35:24;;;;;;;0.90;0.90;;;2.80;99.90;;;;;;5060440;28;20195;-78
2022/03/19 05:37:50;;;;;;;0.40;0.40;;;2.70;99.90;;;;;;5078354;28;20643;-79
2022/03/19 05:40:16;;;;;;;0.83;0.73;;;2.70;99.90;;;;;;5076460;28;20186;-77
2022/03/19 05:42:42;;;;;;;0.77;0.77;;;2.60;99.90;;;;;;5077927;28;20206;-79
2022/03/19 05:45:14;;;;;;;0.13;0.13;;;2.50;99.90;;;;;;5079044;28;20284;-77
2022/03/19 05:47:40;;;;;;;0.60;0.60;;;2.60;99.90;;;;;;5075846;28;20760;-79
2022/03/19 05:50:07;;;;;;;0.10;0.10;;;2.50;99.90;;;;;;5058509;28;20203;-80
2022/03/19 05:52:32;;;;;;;0.30;0.27;;;2.50;99.90;;;;;;5057429;28;20173;-76
2022/03/19 05:54:58;;;;;;;0.20;0.20;;;2.50;99.90;;;;;;5056751;28;20264;-77
2022/03/19 05:57:23;;;;;;;0.10;0.10;;;2.60;99.90;;;;;;5076574;28;20270;-78
2022/03/19 05:59:49;;;;;;;2.70;2.13;;;2.80;99.90;;;;;;5076185;28;20257;-77
2022/03/19 06:02:14;;;;;;;3.03;2.17;;;2.80;99.90;;;;;;5056411;28;20274;-78
2022/03/19 06:04:40;;;;;;;1.43;0.70;;;2.80;99.90;;;;;;5074795;28;20207;-78
2022/03/19 06:07:05;;;;;;;0.60;0.60;;;2.80;99.90;;;;;;5076095;28;20200;-80
2022/03/19 06:09:32;;;;;;;0.10;0.10;;;2.80;99.90;;;;;;5077244;28;20441;-80
2022/03/19 06:11:57;;;;;;;0.53;0.53;;;2.90;99.90;;;;;;5076257;28;20180;-79
2022/03/19 06:14:23;;;;;;;11.93;1.80;;;2.90;99.90;;;;;;5075709;28;20215;-79
2022/03/19 06:16:49;;;;;;;0.30;0.30;;;2.90;99.90;;;;;;5076100;28;20185;-79
2022/03/19 06:19:15;;;;;;;2.73;1.17;;;3.00;99.90;;;;;;5075684;28;20184;-81
2022/03/19 06:21:42;;;;;;;14.83;1.27;;;2.90;99.90;;;;;;5074972;28;20274;-79
2022/03/19 06:24:09;;;;;;;0.60;0.60;;;2.90;99.90;;;;;;5078531;28;20663;-79
2022/03/19 06:26:36;;;;;;;0.30;0.30;;;3.00;99.90;;;;;;5076350;28;20202;-79
2022/03/19 06:29:02;;;;;;;1.10;1.03;;;3.10;99.90;;;;;;5074170;28;20188;-81
2022/03/19 06:31:28;;;;;;;0.30;0.30;;;3.20;99.90;;;;;;5075661;28;20527;-78
2022/03/19 06:33:54;;;;;;;7.17;1.13;;;3.30;99.90;;;;;;5076492;28;20175;-79
2022/03/19 06:39:05;;;;;;;0.50;0.50;;;3.60;99.90;;;;;;5075598;28;20207;-79
2022/03/19 06:41:31;;;;;;;0.10;0.10;;;3.80;99.90;;;;;;5057133;28;20408;-79
2022/03/19 06:43:56;;;;;;;0.83;0.83;;;3.90;99.90;;;;;;5075374;28;20186;-79
2022/03/19 06:46:22;;;;;;;0.63;0.63;;;4.00;99.90;;;;;;5074987;28;20192;-79
2022/03/19 06:48:49;;;;;;;1.20;0.93;;;4.20;99.90;;;;;;5056846;28;20486;-78
2022/03/19 06:51:17;;;;;;;0.13;0.13;;;4.30;99.90;;;;;;5074329;28;20164;-77
2022/03/19 06:53:43;;;;;;;1.63;1.53;;;4.60;99.90;;;;;;5074325;28;20164;-79
2022/03/19 06:56:08;;;;;;;0.63;0.63;;;4.80;99.90;;;;;;5075249;28;20247;-79
2022/03/19 06:58:34;;;;;;;0.10;0.10;;;5.00;99.90;;;;;;5077084;28;20555;-78
2022/03/19 07:01:03;;;;;;;1.50;1.03;;;5.20;99.90;;;;;;5078220;28;20172;-79
2022/03/19 07:03:29;;;;;;;3.30;1.53;;;5.40;99.90;;;;;;5077243;28;20180;-77
2022/03/19 07:05:55;;;;;;;4.73;2.40;;;5.60;99.90;;;;;;5076424;28;20197;-79
2022/03/19 07:08:21;;;;;;;5.63;1.67;;;5.80;99.90;;;;;;5075160;28;20659;-78
2022/03/19 07:10:46;;;;;;;0.20;0.20;;;6.00;99.90;;;;;;5073464;28;20183;-77
2022/03/19 07:13:12;;;;;;;2.37;2.07;;;6.20;99.90;;;;;;5089435;28;20222;-79
2022/03/19 07:15:37;;;;;;;2.13;1.50;;;6.30;99.90;;;;;;5088408;28;20196;-76
2022/03/19 07:18:03;;;;;;;2.63;1.33;;;6.40;99.90;;;;;;5073525;28;20172;-77
2022/03/19 07:20:30;;;;;;;0.57;0.57;;;6.50;99.90;;;;;;5072994;28;20179;-76
2022/03/19 07:23:01;;;;;;;0.40;0.40;;;6.60;99.90;;;;;;5072786;28;20242;-76
2022/03/19 07:25:29;;;;;;;0.73;0.63;;;6.80;99.90;;;;;;5073097;28;20711;-76
2022/03/19 07:27:57;;;;;;;0.87;0.87;;;7.00;99.90;;;;;;5054931;28;20204;-75
2022/03/19 07:30:23;;;;;;;0.87;0.87;;;7.10;99.90;;;;;;5072503;28;20176;-77
2022/03/19 07:32:49;;;;;;;0.87;0.87;;;7.20;99.90;;;;;;5072362;28;20176;-77
2022/03/19 07:35:15;;;;;;;0.30;0.30;;;7.20;99.90;;;;;;5072835;28;20188;-76
2022/03/19 07:37:45;;;;;;;1.80;1.70;;;7.40;99.90;;;;;;5073250;28;20176;-77
2022/03/19 07:40:15;;;;;;;1.23;1.23;;;7.50;99.90;;;;;;5054590;28;20184;-76
2022/03/19 07:42:41;;;;;;;1.13;1.13;;;7.60;99.90;;;;;;5053905;28;20195;-77
2022/03/19 07:45:07;;;;;;;0.97;0.97;;;7.70;99.90;;;;;;5078842;28;20201;-77
2022/03/19 07:47:34;;;;;;;0.87;0.87;;;8.00;99.90;;;;;;5073101;28;20188;-78
2022/03/19 07:50:00;;;;;;;4.73;0.63;;;8.20;99.90;;;;;;5079187;28;20827;-77
2022/03/19 07:52:27;;;;;;;3.27;2.20;;;8.30;99.90;;;;;;5071931;28;20188;-76
2022/03/19 07:54:54;;;;;;;0.77;0.77;;;8.50;99.90;;;;;;5072263;28;20231;-77
2022/03/19 07:57:21;;;;;;;2.37;1.80;;;8.60;99.90;;;;;;5071193;28;20602;-76
2022/03/19 07:59:46;;;;;;;1.07;1.07;;;8.70;99.90;;;;;;5054192;28;20180;-76
2022/03/19 08:02:12;;;;;;;3.73;1.90;;;8.90;99.90;;;;;;5053394;28;20240;-77
2022/03/19 08:04:37;;;;;;;1.53;1.43;;;9.10;99.90;;;;;;5071912;28;20228;-76
2022/03/19 08:07:03;;;;;;;0.80;0.80;;;9.20;99.90;;;;;;5071731;28;20260;-75
2022/03/19 08:09:29;;;;;;;2.60;1.63;;;9.20;99.90;;;;;;5071323;28;20172;-75
2022/03/19 08:11:55;;;;;;;0.93;0.93;;;9.30;99.90;;;;;;5071219;28;20200;-77
2022/03/19 08:14:20;;;;;;;1.07;1.07;;;9.50;99.90;;;;;;5071930;28;20192;-78
2022/03/19 08:16:46;;;;;;;1.50;1.13;;;9.70;99.90;;;;;;5074128;28;20540;-78
2022/03/19 08:19:12;;;;;;;1.23;1.13;;;9.90;99.90;;;;;;5071909;28;20595;-78
2022/03/19 08:21:39;;;;;;;8.03;2.23;;;10.00;99.90;;;;;;5071453;28;20222;-78
2022/03/19 08:24:08;;;;;;;1.13;1.03;;;10.10;99.90;;;;;;5053582;28;20180;-76
2022/03/19 08:26:34;;;;;;;2.10;2.00;;;10.20;99.90;;;;;;5084490;22;20229;-74
2022/03/19 08:29:02;;;;;;;0.40;0.40;;;10.30;99.90;;;;;;5067851;28;20191;-74
2022/03/19 08:31:28;;;;;;;0.47;0.47;;;10.20;99.90;;;;;;5058907;28;20255;-74
2022/03/19 08:33:55;;;;;;;1.03;1.03;;;10.50;99.90;;;;;;5071490;28;20384;-74
2022/03/19 08:36:20;;;;;;;0.40;0.40;;;10.50;99.90;;;;;;5056316;28;20204;-72
2022/03/19 08:41:30;;;;;;;0.77;0.77;;;10.50;99.90;;;;;;5051069;28;20192;-74
2022/03/19 08:43:57;;;;;;;0.73;0.73;;;10.70;99.90;;;;;;5055473;28;20184;-75
2022/03/19 08:46:22;;;;;;;1.03;1.03;;;10.90;99.90;;;;;;5060603;28;20225;-74
2022/03/19 08:48:48;;;;;;;1.70;1.30;;;11.10;99.90;;;;;;5053775;28;20493;-74
2022/03/19 08:51:56;;;;;;;1.07;0.90;;;11.10;99.90;;;;;;5051352;28;20183;-74
2022/03/19 08:54:03;;;;;;;2.17;1.75;;;11.30;99.90;;;;;;5044914;28;20404;-74
2022/03/19 08:56:30;;;;;;;0.70;0.70;;;11.50;99.90;;;;;;5051116;28;20192;-74
2022/03/19 08:58:55;;;;;;;0.80;0.80;;;11.50;99.90;;;;;;5049987;28;20215;-74
2022/03/19 09:01:21;;;;;;;0.90;0.90;;;11.60;99.90;;;;;;5050877;28;20962;-74
2022/03/19 09:03:46;;;;;;;2.33;2.13;;;11.30;99.90;;;;;;5049958;28;20185;-74
2022/03/19 09:06:14;;;;;;;0.57;0.57;;;11.50;99.90;;;;;;5051262;28;20202;-74
2022/03/19 09:08:41;;;;;;;4.33;1.03;;;11.60;99.90;;;;;;5049914;28;20235;-74
2022/03/19 09:11:06;;;;;;;0.93;0.93;;;11.80;99.90;;;;;;5053815;28;20210;-75
2022/03/19 09:13:32;;;;;;;0.73;0.40;;;12.00;99.90;;;;;;5051388;28;20589;-74
2022/03/19 09:15:58;;;;;;;0.53;0.53;;;12.10;99.90;;;;;;5051208;28;20191;-74
2022/03/19 09:18:23;;;;;;;2.90;1.30;;;12.10;99.90;;;;;;5050992;28;20177;-74
2022/03/19 09:20:49;;;;;;;0.50;0.43;;;12.10;99.90;;;;;;5063677;28;20175;-74
2022/03/19 09:23:15;;;;;;;0.83;0.70;;;12.30;99.90;;;;;;5070934;28;20172;-75
2022/03/19 09:25:42;;;;;;;1.20;1.10;;;12.50;99.90;;;;;;5057582;28;20212;-74
2022/03/19 09:28:07;;;;;;;1.30;1.23;;;12.60;99.90;;;;;;5051105;28;20173;-74
2022/03/19 09:30:33;;;;;;;0.57;0.57;;;12.10;99.90;;;;;;5051167;28;20199;-75
2022/03/19 09:33:00;;;;;;;0.80;0.80;;;12.30;99.90;;;;;;5050796;28;20187;-75
2022/03/19 09:35:26;;;;;;;4.77;2.53;;;12.60;99.90;;;;;;5051230;28;20201;-75
2022/03/19 09:37:52;;;;;;;1.50;1.27;;;13.00;99.90;;;;;;5050798;28;20727;-74
2022/03/19 09:40:19;;;;;;;2.03;1.90;;;13.30;99.90;;;;;;5049234;28;20648;-75
2022/03/19 09:42:53;;;;;;;0.10;0.10;;;13.10;99.90;;;;;;5055312;28;20234;-74
2022/03/19 09:45:20;;;;;;;0.47;0.47;;;12.90;99.90;;;;;;5059563;28;20280;-74
2022/03/19 09:47:46;;;;;;;0.57;0.57;;;13.10;99.90;;;;;;5062917;28;20224;-75
2022/03/19 09:50:12;;;;;;;0.63;0.57;;;13.40;99.90;;;;;;5056753;28;20185;-74
2022/03/19 09:52:40;;;;;;;0.43;0.43;;;13.40;99.90;;;;;;5050514;28;20246;-74
2022/03/19 09:55:05;;;;;;;0.63;0.63;;;13.40;99.90;;;;;;5049806;28;20200;-74
2022/03/19 09:57:31;;;;;;;0.63;0.63;;;13.60;99.90;;;;;;5069289;28;20551;-75
2022/03/19 09:59:57;;;;;;;1.60;1.13;;;13.70;99.90;;;;;;5070578;28;20191;-75
2022/03/19 10:02:23;;;;;;;0.60;0.50;;;13.70;99.90;;;;;;5070194;28;20232;-74
2022/03/19 10:04:53;;;;;;;0.87;0.87;;;14.00;99.90;;;;;;5065006;28;20292;-74
2022/03/19 10:10:08;;;;;;;0.73;0.73;;;14.30;99.90;;;;;;5070515;28;20258;-74
2022/03/19 10:12:34;;;;;;;0.70;0.70;;;14.20;99.90;;;;;;5060049;28;20180;-75
2022/03/19 10:15:00;;;;;;;1.13;0.73;;;14.10;99.90;;;;;;5052301;28;20322;-74
2022/03/19 10:17:39;;;;;;;1.50;1.40;;;13.80;99.90;;;;;;5052830;28;20181;-74
2022/03/19 10:20:10;;;;;;;3.73;0.77;;;13.90;99.90;;;;;;5053821;28;20184;-74
2022/03/19 10:22:42;;;;;;;0.87;0.87;;;14.10;99.90;;;;;;5054033;28;20271;-75
2022/03/19 10:25:09;;;;;;;3.10;2.33;;;14.30;99.90;;;;;;5054141;28;20619;-74
2022/03/19 10:27:39;;;;;;;1.23;1.23;;;14.20;99.90;;;;;;5053930;28;20220;-75
2022/03/19 10:30:15;;;;;;;1.47;1.37;;;14.50;99.90;;;;;;5054186;28;20235;-75
2022/03/19 10:32:41;;;;;;;1.87;1.73;;;14.50;99.90;;;;;;5053710;28;20251;-74
2022/03/19 10:35:25;;;;;;;0.53;0.30;;;14.80;99.90;;;;;;5054139;28;20339;-74
2022/03/19 10:37:51;;;;;;;1.57;1.47;;;15.20;99.50;;;;;;5052781;28;20738;-75
2022/03/19 10:40:16;;;;;;;1.00;0.97;;;15.40;98.60;;;;;;5054015;28;20255;-75
2022/03/19 10:42:42;;;;;;;0.53;0.37;;;15.50;95.70;;;;;;5053207;28;20308;-74
2022/03/19 10:45:11;;;;;;;1.03;0.93;;;15.60;94.30;;;;;;5055020;28;20207;-76
2022/03/19 10:47:45;;;;;;;8.60;0.73;;;16.10;94.50;;;;;;5066357;28;20203;-75
2022/03/19 10:50:18;;;;;;;0.40;0.40;;;16.50;93.20;;;;;;5059761;28;20230;-75
2022/03/19 10:52:45;;;;;;;1.27;1.27;;;17.10;92.80;;;;;;5054766;28;20219;-75
2022/03/19 10:55:11;;;;;;;1.67;1.30;;;16.60;92.70;;;;;;5051631;28;20199;-77
2022/03/19 10:57:37;;;;;;;0.70;0.70;;;16.10;93.20;;;;;;5053547;28;20187;-76
2022/03/19 11:00:04;;;;;;;0.50;0.50;;;16.50;90.60;;;;;;5056553;28;20268;-76
2022/03/19 11:02:31;;;;;;;2.63;0.80;;;16.80;85.10;;;;;;5051621;28;20185;-77
2022/03/19 11:04:59;;;;;;;2.23;1.53;;;16.30;90.50;;;;;;5053526;28;20242;-76
2022/03/19 11:07:28;;;;;;;0.40;0.40;;;16.50;92.20;;;;;;5058317;28;20299;-76
2022/03/19 11:09:56;;;;;;;1.00;0.63;;;16.20;87.60;;;;;;5056429;28;20210;-75
2022/03/19 11:12:26;;;;;;;6.67;1.47;;;16.40;85.00;;;;;;5051491;28;20195;-75
2022/03/19 11:14:54;;;;;;;5.20;1.73;;;16.80;80.20;;;;;;5054846;28;20196;-76
2022/03/19 11:17:24;;;;;;;0.30;0.30;;;17.20;82.60;;;;;;5057869;28;20187;-76
2022/03/19 11:19:59;;;;;;;0.20;0.20;;;17.20;79.30;;;;;;5058362;28;20689;-75
2022/03/19 11:22:26;;;;;;;0.67;0.67;;;17.00;75.00;;;;;;5057060;28;20983;-76
2022/03/19 11:25:04;;;;;;;0.87;0.53;;;17.40;77.40;;;;;;5058386;28;20195;-75
2022/03/19 11:27:32;;;;;;;0.57;0.57;;;17.50;74.30;;;;;;5055789;28;20694;-76
2022/03/19 11:29:59;;;;;;;1.30;0.67;;;18.10;70.00;;;;;;5052838;28;20184;-75
2022/03/19 11:32:25;;;;;;;0.20;0.20;;;17.90;61.10;;;;;;5054283;28;21222;-75
2022/03/19 11:34:57;;;;;;;1.17;0.67;;;18.40;55.90;;;;;;5057451;28;20199;-77
2022/03/19 11:37:24;;;;;;;0.27;0.27;;;19.00;52.40;;;;;;5058052;28;20182;-76
2022/03/19 11:40:26;;;;;;;2.00;1.80;;;19.80;51.80;;;;;;5054691;28;20184;-75
2022/03/19 11:42:57;;;;;;;1.97;0.43;;;19.40;52.00;;;;;;5055269;28;20536;-76
2022/03/19 11:45:23;;;;;;;0.20;0.20;;;20.50;50.00;;;;;;5056530;28;20188;-77
2022/03/19 11:47:49;;;;;;;0.77;0.77;;;20.50;50.90;;;;;;5049669;28;20494;-76
2022/03/19 11:50:20;;;;;;;0.53;0.53;;;21.50;46.40;;;;;;5051995;28;20165;-77
2022/03/19 11:52:46;;;;;;;1.80;0.30;;;22.30;42.50;;;;;;5056759;28;20257;-77
2022/03/19 11:55:16;;;;;;;0.77;0.47;;;23.00;41.30;;;;;;5056216;28;20657;-77
2022/03/19 11:58:05;;;;;;;6.60;0.83;;;24.30;39.00;;;;;;5056600;28;20184;-78
2022/03/19 12:00:33;;;;;;;0.40;0.30;;;25.50;36.40;;;;;;5054328;28;20199;-76
2022/03/19 12:03:08;;;;;;;0.27;0.27;;;25.40;33.80;;;;;;5058491;28;20212;-75
2022/03/19 12:05:37;;;;;;;0.37;0.37;;;25.70;32.40;;;;;;5056749;28;20295;-77
2022/03/19 12:08:12;;;;;;;1.30;0.60;;;25.30;31.90;;;;;;5058862;28;20203;-76
2022/03/19 12:10:55;;;;;;;0.20;0.20;;;25.10;34.00;;;;;;5051605;28;20181;-77
2022/03/19 12:13:26;;;;;;;0.20;0.20;;;24.00;37.40;;;;;;5054328;28;20168;-77
2022/03/19 12:15:53;;;;;;;0.40;0.40;;;24.30;36.60;;;;;;5054714;28;20203;-76
2022/03/19 12:18:35;;;;;;;0.77;0.77;;;23.00;38.50;;;;;;5054542;28;20173;-77
2022/03/19 12:21:08;;;;;;;0.20;0.20;;;21.90;38.70;;;;;;5066254;28;20730;-76
2022/03/19 12:23:55;;;;;;;0.63;0.63;;;22.00;41.60;;;;;;5057229;28;20197;-77
2022/03/19 12:26:22;;;;;;;0.30;0.30;;;21.90;39.50;;;;;;5048428;28;20274;-77
2022/03/19 12:29:03;;;;;;;0.67;0.67;;;23.30;39.00;;;;;;5050644;28;20276;-78
2022/03/19 12:31:31;;;;;;;0.30;0.30;;;24.30;35.80;;;;;;5057237;28;20172;-77
2022/03/19 12:33:57;;;;;;;0.43;0.43;;;25.70;34.60;;;;;;5071764;28;20172;-77
2022/03/19 12:36:22;;;;;;;0.30;0.30;;;25.70;34.00;;;;;;5070841;28;20226;-77
2022/03/19 12:38:52;;;;;;;0.40;0.40;;;26.00;34.00;;;;;;5070158;28;20584;-77
2022/03/19 12:41:30;;;;;;;0.40;0.40;;;25.00;34.40;;;;;;5070382;28;20426;-77
2022/03/19 12:44:04;;;;;;;0.30;0.30;;;25.90;34.10;;;;;;5071559;28;20266;-76
2022/03/19 12:46:33;;;;;;;0.77;0.77;;;25.70;33.30;;;;;;5058720;28;20204;-77
2022/03/19 12:49:11;;;;;;;0.20;0.20;;;24.70;33.10;;;;;;5067364;28;20169;-77
2022/03/19 12:51:39;;;;;;;0.30;0.30;;;24.20;33.50;;;;;;5051042;28;20188;-77
2022/03/19 12:54:26;;;;;;;0.20;0.20;;;23.90;32.60;;;;;;5051371;28;20679;-77
2022/03/19 12:56:54;;;;;;;0.20;0.20;;;22.70;33.60;;;;;;5051369;28;20210;-76
2022/03/19 12:59:27;;;;;;;0.33;0.33;;;23.50;33.10;;;;;;5050175;28;20271;-77
2022/03/19 13:01:54;;;;;;;0.10;0.10;;;24.50;33.60;;;;;;5051009;28;20199;-77
2022/03/19 13:04:27;;;;;;;0.40;0.40;;;25.50;32.60;;;;;;5049878;28;20695;-77
2022/03/19 13:06:54;;;;;;;0.47;0.47;;;24.50;32.30;;;;;;5048101;28;20232;-77